Time;durP1;ratioP1;P1;durP2;ratioP2;P2;SDS_P1;SDS_P2;PMS_P1;PMS_P2;Temp;Humidity;BMP_temperature;BMP_pressure;BME280_temperature;BME280_humidity;BME280_pressure;Samples;Min_cycle;Max_cycle;Signal;HPM_P1;HPM_P2
2022/11/06 00:02:12;;;;;;;15.90;7.90;;;;;;;8.57;90.61;100721.23;100311;1297;98433;-59
2022/11/06 00:04:41;;;;;;;13.50;8.10;;;;;;;8.51;90.57;100720.52;100294;1292;95463;-59
2022/11/06 00:07:12;;;;;;;13.20;8.00;;;;;;;8.44;90.56;100724.33;100292;1294;81605;-59
2022/11/06 00:09:41;;;;;;;13.40;7.40;;;;;;;8.41;90.50;100730.48;100323;1294;87293;-60
2022/11/06 00:12:17;;;;;;;12.20;7.70;;;;;;;8.33;90.61;100733.30;100274;1301;80971;-60
2022/11/06 00:14:49;;;;;;;14.70;8.00;;;;;;;8.27;90.56;100733.40;100323;1294;99555;-59
2022/11/06 00:17:22;;;;;;;14.20;7.90;;;;;;;8.25;90.44;100734.08;100286;1297;94922;-59
2022/11/06 00:19:51;;;;;;;12.60;8.10;;;;;;;8.23;90.45;100735.11;100333;1294;83206;-58
2022/11/06 00:22:21;;;;;;;14.80;8.30;;;;;;;8.18;90.53;100734.33;100311;1294;87018;-58
2022/11/06 00:24:51;;;;;;;12.10;7.80;;;;;;;8.18;90.46;100735.64;100387;1293;82311;-59
2022/11/06 00:27:22;;;;;;;13.60;8.10;;;;;;;8.16;90.68;100731.16;100346;1292;100151;-59
2022/11/06 00:29:59;;;;;;;14.50;7.80;;;;;;;8.12;90.59;100737.88;100342;1294;95069;-58
2022/11/06 00:32:31;;;;;;;16.60;7.80;;;;;;;8.02;90.40;100742.70;100370;1294;82813;-60
2022/11/06 00:35:03;;;;;;;14.60;8.10;;;;;;;7.97;90.30;100749.21;100324;1293;89476;-59
2022/11/06 00:37:37;;;;;;;12.40;7.80;;;;;;;7.89;90.17;100756.48;100337;1300;81557;-59
2022/11/06 00:40:10;;;;;;;16.20;8.00;;;;;;;7.81;90.22;100759.89;100353;1300;99959;-59
2022/11/06 00:42:41;;;;;;;13.30;7.50;;;;;;;7.73;90.18;100759.33;100305;1301;96008;-59
2022/11/06 00:45:20;;;;;;;13.50;7.80;;;;;;;7.63;90.15;100762.48;100310;1294;80680;-59
2022/11/06 00:47:58;;;;;;;14.50;7.30;;;;;;;7.59;90.30;100764.70;100273;1293;88467;-59
2022/11/06 00:50:28;;;;;;;13.70;7.40;;;;;;;7.56;90.24;100772.59;99975;1294;456056;-57
2022/11/06 00:52:58;;;;;;;12.50;7.70;;;;;;;7.53;90.37;100776.00;100309;1300;98973;-58
2022/11/06 00:55:27;;;;;;;10.90;7.20;;;;;;;7.48;90.35;100780.20;100283;1294;95619;-59
2022/11/06 00:57:59;;;;;;;16.80;8.90;;;;;;;7.46;90.34;100777.91;100317;1297;83069;-59
2022/11/06 01:00:30;;;;;;;16.90;7.80;;;;;;;7.46;90.37;100779.70;100285;1294;89318;-60
2022/11/06 01:03:02;;;;;;;;;;;;;;;7.43;90.30;100779.91;100318;1294;82589;-59
2022/11/06 01:05:34;;;;;;;15.20;8.20;;;;;;;7.41;90.39;100781.55;100278;1294;97744;-59
2022/11/06 01:08:03;;;;;;;14.50;8.00;;;;;;;7.40;90.44;100782.52;100301;1297;95445;-59
2022/11/06 01:10:34;;;;;;;12.80;7.80;;;;;;;7.38;90.60;100783.14;100324;1284;82878;-60
2022/11/06 01:13:03;;;;;;;14.90;9.30;;;;;;;7.40;90.71;100785.38;100334;1293;88312;-59
2022/11/06 01:15:35;;;;;;;12.70;8.20;;;;;;;7.39;90.51;100786.08;100340;1300;81590;-60
2022/11/06 01:18:05;;;;;;;12.40;8.30;;;;;;;7.35;90.58;100784.63;100352;1294;99246;-59
2022/11/06 01:20:33;;;;;;;14.10;8.00;;;;;;;7.36;90.59;100789.08;100318;1298;94818;-59
2022/11/06 01:23:07;;;;;;;14.20;8.40;;;;;;;7.35;90.50;100789.00;100377;1294;83132;-59
2022/11/06 01:25:36;;;;;;;11.00;8.10;;;;;;;7.33;90.68;100791.18;100350;1294;86432;-59
2022/11/06 01:28:06;;;;;;;13.40;8.50;;;;;;;7.33;90.57;100793.46;100353;1298;81046;-59
2022/11/06 01:30:40;;;;;;;14.40;8.80;;;;;;;7.34;90.56;100794.14;100300;1291;99688;-59
2022/11/06 01:33:11;;;;;;;16.60;9.00;;;;;;;7.28;90.57;100792.77;100300;1301;95248;-59
2022/11/06 01:35:50;;;;;;;13.20;8.30;;;;;;;7.26;90.81;100793.70;100294;1300;83087;-59
2022/11/06 01:38:22;;;;;;;15.90;8.90;;;;;;;7.28;90.84;100798.52;100315;1300;88917;-58
2022/11/06 01:40:54;;;;;;;19.00;8.80;;;;;;;7.25;90.81;100799.29;100285;1299;81336;-58
2022/11/06 01:43:44;;;;;;;16.40;8.30;;;;;;;7.22;90.97;100797.30;100304;1294;99604;-59
2022/11/06 01:46:19;;;;;;;14.00;8.70;;;;;;;7.20;90.86;100800.36;100273;1294;95662;-58
2022/11/06 01:49:02;;;;;;;13.00;8.20;;;;;;;7.21;90.90;100798.86;100330;1298;83046;-59
2022/11/06 01:51:37;;;;;;;15.80;8.70;;;;;;;7.17;90.90;100794.60;100329;1293;87665;-58
2022/11/06 01:54:07;;;;;;;;;;;;;;;7.18;90.97;100795.75;100359;1290;81702;-58
2022/11/06 01:56:41;;;;;;;16.90;9.30;;;;;;;7.19;90.90;100796.06;100340;1294;98288;-58
2022/11/06 01:59:17;;;;;;;12.20;8.30;;;;;;;7.19;90.85;100797.50;100356;1300;95449;-58
2022/11/06 02:01:48;;;;;;;14.90;8.80;;;;;;;7.17;90.73;100793.15;100376;1294;82376;-58
2022/11/06 02:04:22;;;;;;;16.00;8.50;;;;;;;7.12;90.71;100794.77;100349;1294;88520;-58
2022/11/06 02:06:51;;;;;;;;;;;;;;;7.06;90.78;100799.51;100373;1300;81796;-59
2022/11/06 02:09:21;;;;;;;16.10;8.30;;;;;;;7.02;90.82;100800.80;100374;1292;100160;-58
2022/11/06 02:11:55;;;;;;;16.00;8.60;;;;;;;6.99;90.91;100798.58;100361;1294;95009;-59
2022/11/06 02:14:34;;;;;;;13.40;8.40;;;;;;;7.00;90.90;100798.00;100307;1301;82053;-61
2022/11/06 02:17:27;;;;;;;14.30;9.30;;;;;;;6.97;90.91;100799.16;100317;1292;87979;-59
2022/11/06 02:20:06;;;;;;;13.60;7.80;;;;;;;6.92;90.90;100805.04;100327;1299;81595;-58
2022/11/06 02:23:13;;;;;;;11.50;8.50;;;;;;;6.90;90.96;100806.73;100319;1297;99119;-60
2022/11/06 02:26:02;;;;;;;13.30;8.80;;;;;;;6.88;90.90;100805.00;100264;1285;94842;-59
2022/11/06 02:28:39;;;;;;;9.90;7.20;;;;;;;6.80;90.81;100803.98;100302;1293;82672;-58
2022/11/06 02:31:17;;;;;;;12.90;8.50;;;;;;;6.75;90.91;100808.08;100287;1300;88503;-58
2022/11/06 02:33:59;;;;;;;14.50;8.10;;;;;;;6.70;90.80;100812.23;100317;1294;81738;-58
2022/11/06 02:36:35;;;;;;;14.40;8.20;;;;;;;6.65;91.01;100820.00;100291;1297;99588;-58
2022/11/06 02:39:11;;;;;;;14.60;7.80;;;;;;;6.64;90.91;100823.19;100293;1301;94913;-59
2022/11/06 02:41:47;;;;;;;14.00;7.70;;;;;;;6.60;90.85;100822.93;100337;1297;82139;-58
2022/11/06 02:44:22;;;;;;;14.40;8.60;;;;;;;6.54;90.96;100830.60;100350;1302;88252;-59
2022/11/06 02:47:01;;;;;;;16.10;8.80;;;;;;;6.52;91.00;100837.21;100301;1299;82765;-59
2022/11/06 02:49:38;;;;;;;15.10;8.30;;;;;;;6.51;91.00;100836.13;100349;1293;98616;-60
2022/11/06 02:52:14;;;;;;;11.60;7.80;;;;;;;6.47;90.81;100837.88;100303;1294;95702;-60
2022/11/06 02:54:55;;;;;;;15.60;7.70;;;;;;;6.50;91.04;100839.02;100349;1298;81746;-59
2022/11/06 02:57:32;;;;;;;15.30;8.50;;;;;;;6.52;91.22;100836.38;100210;1301;88368;-59
2022/11/06 03:00:10;;;;;;;13.00;8.50;;;;;;;6.47;90.94;100839.13;100347;1300;82594;-60
2022/11/06 03:02:47;;;;;;;13.60;8.60;;;;;;;6.46;90.95;100843.43;100321;1301;99614;-59
2022/11/06 03:05:28;;;;;;;14.60;9.00;;;;;;;6.41;91.10;100851.38;100291;1301;95422;-59
2022/11/06 03:08:11;;;;;;;16.40;8.60;;;;;;;6.37;91.18;100846.09;100336;1301;82333;-60
2022/11/06 03:10:51;;;;;;;14.70;8.50;;;;;;;6.34;91.09;100847.46;100297;1294;89008;-60
2022/11/06 03:13:35;;;;;;;14.30;8.40;;;;;;;6.34;91.16;100850.70;100324;1294;80495;-57
2022/11/06 03:16:16;;;;;;;14.90;9.40;;;;;;;6.34;91.08;100852.13;100316;1293;99229;-58
2022/11/06 03:18:59;;;;;;;11.70;8.00;;;;;;;6.31;91.08;100847.99;100270;1292;94247;-59
2022/11/06 03:21:37;;;;;;;14.90;9.70;;;;;;;6.27;91.18;100846.95;100315;1298;82869;-58
2022/11/06 03:24:14;;;;;;;13.40;7.90;;;;;;;6.23;91.05;100848.38;100319;1297;88048;-59
2022/11/06 03:26:51;;;;;;;13.50;8.80;;;;;;;6.18;90.81;100846.77;100290;1292;81793;-60
2022/11/06 03:29:27;;;;;;;15.30;8.20;;;;;;;6.10;90.95;100843.80;100212;1294;100436;-60
2022/11/06 03:32:03;;;;;;;12.80;8.30;;;;;;;6.06;90.80;100846.33;100309;1292;95114;-60
2022/11/06 03:34:38;;;;;;;14.60;8.00;;;;;;;5.98;90.89;100840.67;100383;1300;82177;-58
2022/11/06 03:37:18;;;;;;;13.80;9.00;;;;;;;5.92;90.90;100839.16;100311;1294;88962;-59
2022/11/06 03:39:57;;;;;;;12.40;9.10;;;;;;;5.83;90.92;100842.98;100369;1292;82133;-60
2022/11/06 03:42:30;;;;;;;10.90;7.60;;;;;;;5.76;90.73;100851.05;100335;1299;99273;-60
2022/11/06 03:45:08;;;;;;;10.90;8.10;;;;;;;5.68;90.64;100855.39;100348;1297;94794;-59
2022/11/06 03:47:49;;;;;;;11.30;7.80;;;;;;;5.61;90.58;100863.58;100357;1294;81843;-59
2022/11/06 03:50:26;;;;;;;12.40;7.40;;;;;;;5.54;90.64;100865.30;100372;1285;88049;-60
2022/11/06 03:53:03;;;;;;;11.70;7.60;;;;;;;5.47;90.51;100868.47;100368;1298;82282;-58
2022/11/06 03:55:41;;;;;;;16.40;7.80;;;;;;;5.38;90.39;100870.91;100166;1295;98487;-58
2022/11/06 03:58:23;;;;;;;11.90;7.30;;;;;;;5.29;90.63;100876.91;100319;1300;95898;-59
2022/11/06 04:00:57;;;;;;;11.30;7.00;;;;;;;5.27;90.55;100878.58;100307;1290;81919;-59
2022/11/06 04:03:30;;;;;;;10.40;7.20;;;;;;;5.22;90.57;100879.38;100298;1292;88596;-60
2022/11/06 04:06:06;;;;;;;11.90;7.20;;;;;;;5.20;90.79;100878.02;100282;1301;80001;-59
2022/11/06 04:14:16;;;;;;;13.10;8.10;;;;;;;5.07;90.77;100879.41;100351;1297;81570;-59
2022/11/06 04:16:56;;;;;;;14.10;8.40;;;;;;;5.04;90.93;100878.27;100320;1290;87240;-59
2022/11/06 04:19:30;;;;;;;14.90;8.50;;;;;;;5.04;90.96;100877.52;100362;1292;81272;-59
2022/11/06 04:22:29;;;;;;;12.40;8.30;;;;;;;4.99;91.04;100880.30;100351;1292;100058;-59
2022/11/06 04:28:20;;;;;;;10.80;7.90;;;;;;;4.92;91.01;100880.50;100360;1300;83148;-60
2022/11/06 04:31:02;;;;;;;9.80;7.50;;;;;;;4.88;91.05;100880.67;100325;1301;89520;-60
2022/11/06 04:33:44;;;;;;;10.00;7.20;;;;;;;4.90;90.89;100879.01;100338;1292;82431;-59
2022/11/06 04:36:32;;;;;;;11.10;7.70;;;;;;;4.91;91.09;100880.55;100317;1300;99959;-59
2022/11/06 04:39:12;;;;;;;11.00;7.60;;;;;;;4.88;91.22;100876.33;100299;1301;94774;-58
2022/11/06 04:41:47;;;;;;;12.00;8.00;;;;;;;4.92;91.13;100873.00;100294;1297;81320;-58
2022/11/06 04:44:29;;;;;;;9.80;7.70;;;;;;;4.93;91.26;100872.55;100300;1297;88923;-60
2022/11/06 04:47:05;;;;;;;11.10;7.70;;;;;;;4.91;91.36;100867.48;100296;1300;82134;-59
2022/11/06 04:49:38;;;;;;;9.70;7.40;;;;;;;4.93;91.35;100869.10;100311;1297;99437;-59
2022/11/06 04:52:19;;;;;;;10.90;7.30;;;;;;;4.93;91.47;100866.80;100308;1295;95503;-59
2022/11/06 04:54:53;;;;;;;10.70;7.70;;;;;;;4.97;91.25;100862.73;100312;1300;82740;-59
2022/11/06 04:57:27;;;;;;;11.70;7.60;;;;;;;4.97;91.32;100863.05;100305;1301;88212;-60
2022/11/06 04:59:59;;;;;;;12.90;7.30;;;;;;;4.95;91.05;100866.27;100332;1301;79965;-59
2022/11/06 05:02:31;;;;;;;10.60;7.50;;;;;;;4.93;91.34;100861.32;100391;1297;100167;-60
2022/11/06 05:05:02;;;;;;;9.40;7.30;;;;;;;4.89;91.21;100869.17;100359;1297;95010;-58
2022/11/06 05:07:36;;;;;;;9.00;6.80;;;;;;;4.87;91.23;100870.59;100359;1293;83176;-59
2022/11/06 05:10:07;;;;;;;10.90;6.80;;;;;;;4.84;91.41;100871.55;100379;1296;88534;-58
2022/11/06 05:12:40;;;;;;;14.40;7.60;;;;;;;4.85;91.47;100872.95;100234;1301;82525;-58
2022/11/06 05:15:12;;;;;;;9.50;6.60;;;;;;;4.78;91.48;100875.17;100304;1293;99614;-59
2022/11/06 05:17:41;;;;;;;14.40;6.90;;;;;;;4.80;91.73;100875.55;100302;1297;93034;-58
2022/11/06 05:20:15;;;;;;;9.40;7.20;;;;;;;4.78;91.33;100879.83;100319;1297;83084;-60
2022/11/06 05:23:00;;;;;;;8.30;7.10;;;;;;;4.76;91.33;100882.48;100305;1297;88405;-60
2022/11/06 05:25:32;;;;;;;11.00;7.40;;;;;;;4.73;91.20;100884.49;100319;1293;80134;-58
2022/11/06 05:28:05;;;;;;;9.20;7.60;;;;;;;4.75;91.61;100887.06;100343;1294;99054;-60
2022/11/06 05:30:36;;;;;;;10.70;7.40;;;;;;;4.77;91.49;100884.48;100297;1297;96108;-62
2022/11/06 05:33:12;;;;;;;10.20;7.90;;;;;;;4.76;91.48;100891.55;100318;1299;83295;-59
2022/11/06 05:35:42;;;;;;;9.50;7.20;;;;;;;4.75;91.68;100892.52;100327;1298;88283;-59
2022/11/06 05:38:16;;;;;;;9.80;7.40;;;;;;;4.78;91.68;100892.14;100365;1294;82672;-59
2022/11/06 05:40:48;;;;;;;8.00;6.60;;;;;;;4.81;91.89;100892.90;100206;1295;99721;-60
2022/11/06 05:43:20;;;;;;;9.40;7.00;;;;;;;4.87;92.07;100892.40;100326;1297;92904;-59
2022/11/06 05:45:52;;;;;;;9.00;7.00;;;;;;;4.87;92.06;100892.34;100385;1294;82635;-59
2022/11/06 05:48:24;;;;;;;7.10;6.40;;;;;;;4.90;91.95;100897.24;100343;1296;88301;-60
2022/11/06 05:50:53;;;;;;;9.70;5.90;;;;;;;4.90;91.92;100898.86;100331;1297;80732;-60
2022/11/06 05:53:27;;;;;;;7.90;6.00;;;;;;;4.87;92.00;100904.71;100359;1297;98442;-59
2022/11/06 05:55:57;;;;;;;6.90;5.60;;;;;;;4.86;92.01;100906.17;100274;1294;95787;-59
2022/11/06 05:58:26;;;;;;;7.20;6.50;;;;;;;4.84;91.94;100913.50;100339;1296;82644;-60
2022/11/06 06:01:00;;;;;;;8.20;6.00;;;;;;;4.87;92.30;100911.27;100315;1294;88339;-60
2022/11/06 06:03:35;;;;;;;10.30;6.40;;;;;;;4.94;92.53;100916.52;100328;1297;82250;-58
2022/11/06 06:06:11;;;;;;;10.40;6.60;;;;;;;4.97;92.40;100920.88;100310;1297;99459;-57
2022/11/06 06:08:40;;;;;;;9.70;6.60;;;;;;;5.01;92.41;100920.85;100329;1298;95408;-59
2022/11/06 06:11:13;;;;;;;10.40;6.90;;;;;;;5.08;92.25;100920.73;100342;1300;81562;-58
2022/11/06 06:13:44;;;;;;;14.10;8.40;;;;;;;5.19;92.28;100921.16;100300;1293;87581;-59
2022/11/06 06:16:16;;;;;;;12.50;8.30;;;;;;;5.21;92.40;100929.70;100322;1295;82064;-59
2022/11/06 06:18:50;;;;;;;8.70;7.20;;;;;;;5.28;92.31;100930.77;100337;1284;99610;-61
2022/11/06 06:21:20;;;;;;;10.00;7.60;;;;;;;5.34;92.40;100933.81;100332;1297;94464;-61
2022/11/06 06:23:51;;;;;;;11.10;7.50;;;;;;;5.40;92.42;100934.36;100261;1287;81877;-59
2022/11/06 06:26:23;;;;;;;12.20;7.20;;;;;;;5.47;92.33;100938.71;100310;1300;89055;-59
2022/11/06 06:28:58;;;;;;;14.10;8.10;;;;;;;5.53;92.29;100938.12;100340;1301;80678;-60
2022/11/06 06:31:27;;;;;;;13.10;7.70;;;;;;;5.61;92.31;100940.59;100231;1300;98815;-60
2022/11/06 06:33:58;;;;;;;10.20;7.70;;;;;;;5.62;92.44;100944.36;100337;1297;95060;-58
2022/11/06 06:36:32;;;;;;;11.80;8.00;;;;;;;5.76;92.43;100948.96;100320;1297;82983;-58
2022/11/06 06:39:03;;;;;;;11.40;8.10;;;;;;;5.83;92.23;100955.61;100310;1301;89409;-59
2022/11/06 06:41:33;;;;;;;12.90;8.80;;;;;;;5.89;92.51;100955.40;100370;1296;82091;-59
2022/11/06 06:44:02;;;;;;;13.60;9.70;;;;;;;5.96;92.24;100952.63;100333;1299;98306;-60
2022/11/06 06:46:34;;;;;;;13.10;8.60;;;;;;;5.99;92.53;100953.61;100314;1297;95849;-59
2022/11/06 06:49:07;;;;;;;12.50;8.80;;;;;;;6.03;92.43;100955.73;100328;1304;81498;-59
2022/11/06 06:51:36;;;;;;;12.40;9.10;;;;;;;6.10;92.27;100958.99;100317;1299;86915;-59
2022/11/06 06:54:08;;;;;;;11.40;8.30;;;;;;;6.10;92.34;100958.91;100283;1296;80276;-59
2022/11/06 06:56:43;;;;;;;13.30;8.90;;;;;;;6.14;92.13;100962.54;100311;1293;98927;-60
2022/11/06 06:59:20;;;;;;;11.60;8.80;;;;;;;6.11;92.32;100959.36;100307;1292;94949;-59
2022/11/06 07:01:52;;;;;;;13.90;8.90;;;;;;;6.17;92.31;100962.48;100312;1296;83587;-59
2022/11/06 07:04:24;;;;;;;11.80;9.20;;;;;;;6.28;92.29;100962.00;100340;1297;89385;-59
2022/11/06 07:06:56;;;;;;;12.50;9.00;;;;;;;6.45;91.87;100966.54;100323;1301;81114;-59
2022/11/06 07:09:32;;;;;;;13.10;9.90;;;;;;;6.51;91.71;100971.66;100420;1297;98282;-60
2022/11/06 07:12:01;;;;;;;12.60;9.60;;;;;;;6.60;91.64;100968.59;100429;1297;95839;-61
2022/11/06 07:14:30;;;;;;;11.30;9.00;;;;;;;6.64;91.73;100964.05;100365;1294;83254;-61
2022/11/06 07:16:59;;;;;;;12.90;9.30;;;;;;;6.75;91.53;100970.04;100357;1297;87183;-61
2022/11/06 07:19:28;;;;;;;11.00;8.10;;;;;;;6.76;91.76;100971.99;100406;1299;81958;-61
2022/11/06 07:22:04;;;;;;;11.60;8.40;;;;;;;6.80;91.80;100971.51;100324;1301;98081;-61
2022/11/06 07:24:33;;;;;;;13.40;9.40;;;;;;;6.91;91.67;100972.63;100309;1293;93023;-59
2022/11/06 07:27:08;;;;;;;12.10;9.00;;;;;;;6.92;91.54;100972.45;100299;1297;79674;-59
2022/11/06 07:29:39;;;;;;;13.50;8.80;;;;;;;7.04;91.40;100978.94;100325;1298;89027;-59
2022/11/06 07:32:15;;;;;;;15.20;9.40;;;;;;;7.15;91.40;100986.14;100305;1296;79359;-59
2022/11/06 07:34:44;;;;;;;13.00;9.50;;;;;;;7.14;91.28;100984.98;100310;1292;99453;-59
2022/11/06 07:37:16;;;;;;;12.30;10.00;;;;;;;7.10;91.51;100986.63;100262;1300;95330;-59
2022/11/06 07:39:45;;;;;;;13.60;9.70;;;;;;;7.18;91.22;100987.23;100298;1298;83411;-58
2022/11/06 07:42:24;;;;;;;13.50;9.50;;;;;;;7.25;91.08;100986.41;100283;1300;86907;-59
2022/11/06 07:44:54;;;;;;;14.00;9.90;;;;;;;7.29;91.61;100986.17;100334;1301;81829;-59
2022/11/06 07:47:23;;;;;;;14.80;10.10;;;;;;;7.34;91.68;100982.96;100324;1302;100168;-59
2022/11/06 07:49:57;;;;;;;14.20;10.20;;;;;;;7.41;91.30;100985.44;100299;1294;95643;-60
2022/11/06 07:52:29;;;;;;;12.90;10.20;;;;;;;7.43;91.29;100987.96;100317;1300;81606;-60
2022/11/06 07:55:02;;;;;;;14.20;10.90;;;;;;;7.47;91.39;100990.34;100320;1295;87713;-60
2022/11/06 07:57:35;;;;;;;18.50;11.40;;;;;;;7.56;91.08;100993.93;100333;1300;82415;-61
2022/11/06 08:00:08;;;;;;;16.50;11.50;;;;;;;7.57;91.19;100989.48;100275;1300;98845;-59
2022/11/06 08:02:37;;;;;;;14.10;11.50;;;;;;;7.63;91.57;100993.00;100285;1300;96011;-59
2022/11/06 08:05:09;;;;;;;18.40;12.70;;;;;;;7.74;91.11;100990.80;100274;1300;82247;-59
2022/11/06 08:07:39;;;;;;;16.70;12.50;;;;;;;7.68;91.23;100985.91;100258;1300;88165;-60
2022/11/06 08:10:16;;;;;;;14.50;12.30;;;;;;;7.74;91.11;100984.25;100247;1301;79897;-60
2022/11/06 08:12:49;;;;;;;16.60;13.20;;;;;;;7.72;90.86;100988.67;100296;1297;100189;-60
2022/11/06 08:15:22;;;;;;;15.90;12.60;;;;;;;7.69;90.83;100991.46;100252;1294;95921;-59
2022/11/06 08:17:52;;;;;;;15.70;12.60;;;;;;;7.67;90.89;100992.66;100291;1292;83417;-59
2022/11/06 08:20:21;;;;;;;18.30;12.20;;;;;;;7.63;90.72;100991.02;100260;1301;88701;-59
2022/11/06 08:22:52;;;;;;;16.90;12.80;;;;;;;7.65;90.31;100991.05;100281;1300;82256;-58
2022/11/06 08:25:21;;;;;;;21.70;14.10;;;;;;;7.60;90.55;100991.37;100293;1292;99967;-61
2022/11/06 08:27:56;;;;;;;16.30;11.90;;;;;;;7.68;90.54;100992.70;100245;1298;94851;-60
2022/11/06 08:30:25;;;;;;;15.40;12.20;;;;;;;7.69;90.75;100996.17;100338;1296;82009;-62
2022/11/06 08:33:02;;;;;;;15.50;12.90;;;;;;;7.74;90.90;100999.94;100349;1298;88705;-59
2022/11/06 08:35:36;;;;;;;17.80;12.90;;;;;;;7.76;90.85;100999.25;100336;1300;80567;-59
2022/11/06 08:38:08;;;;;;;17.10;13.10;;;;;;;7.90;90.74;100997.20;100299;1296;99393;-59
2022/11/06 08:40:43;;;;;;;15.90;13.10;;;;;;;8.07;90.75;100997.64;100290;1295;93774;-59
2022/11/06 08:43:15;;;;;;;17.50;13.30;;;;;;;8.19;91.19;100997.96;100313;1291;82840;-59
2022/11/06 08:45:47;;;;;;;13.00;10.90;;;;;;;8.39;90.98;100992.35;100282;1300;86669;-58
2022/11/06 08:48:22;;;;;;;14.00;10.30;;;;;;;8.37;90.49;100991.66;99965;1300;480514;-60
2022/11/06 08:50:51;;;;;;;16.70;10.70;;;;;;;8.37;90.70;100988.92;100289;1302;98839;-61
2022/11/06 08:53:26;;;;;;;17.90;11.90;;;;;;;8.37;90.65;100989.98;100284;1300;93043;-60
2022/11/06 08:56:02;;;;;;;14.40;11.50;;;;;;;8.46;90.79;100987.94;100250;1300;82789;-60
2022/11/06 08:58:33;;;;;;;14.10;10.20;;;;;;;8.54;90.72;100982.04;100299;1302;88008;-60
2022/11/06 09:01:03;;;;;;;11.70;10.40;;;;;;;8.59;90.58;100983.49;100173;1302;81555;-60
2022/11/06 09:03:35;;;;;;;13.10;10.90;;;;;;;8.49;90.40;100981.75;100301;1295;97633;-60
2022/11/06 09:06:07;;;;;;;18.10;11.00;;;;;;;8.50;90.24;100982.52;100294;1295;93950;-61
2022/11/06 09:08:36;;;;;;;14.10;10.80;;;;;;;8.46;90.46;100983.70;100333;1300;82738;-59
2022/11/06 09:11:11;;;;;;;11.50;10.40;;;;;;;8.50;90.55;100986.98;100282;1302;88784;-59
2022/11/06 09:13:44;;;;;;;13.30;10.20;;;;;;;8.65;90.43;100986.88;100351;1300;81209;-58
2022/11/06 09:16:19;;;;;;;11.40;9.30;;;;;;;8.86;89.86;100990.59;100312;1300;99463;-58
2022/11/06 09:18:53;;;;;;;13.00;9.20;;;;;;;8.89;89.75;100992.48;100296;1292;93141;-60
2022/11/06 09:21:22;;;;;;;12.60;9.50;;;;;;;8.98;90.08;100991.94;100313;1295;82634;-61
2022/11/06 09:23:51;;;;;;;12.50;10.20;;;;;;;9.06;89.99;100996.03;100358;1300;89046;-59
2022/11/06 09:26:21;;;;;;;11.70;8.90;;;;;;;9.10;89.86;100996.17;100317;1290;82570;-59
2022/11/06 09:28:53;;;;;;;10.90;8.90;;;;;;;9.07;89.52;100995.05;100313;1298;99980;-60
2022/11/06 09:31:22;;;;;;;10.60;9.10;;;;;;;9.16;89.56;100998.17;100286;1300;95016;-60
2022/11/06 09:33:53;;;;;;;10.30;8.70;;;;;;;9.13;89.40;101002.25;100281;1301;82538;-60
2022/11/06 09:36:22;;;;;;;13.60;9.60;;;;;;;9.11;89.40;101008.64;100280;1292;88017;-60
2022/11/06 09:38:56;;;;;;;12.10;9.70;;;;;;;9.19;89.40;101010.05;100298;1300;83341;-58
2022/11/06 09:41:38;;;;;;;11.20;9.20;;;;;;;9.22;89.30;101014.13;100160;1300;99556;-58
2022/11/06 09:44:32;;;;;;;11.80;8.80;;;;;;;9.21;88.97;101020.45;100318;1292;95186;-59
2022/11/06 09:47:14;;;;;;;13.30;9.90;;;;;;;9.16;89.02;101017.76;100330;1300;83120;-59
2022/11/06 09:49:50;;;;;;;12.40;10.30;;;;;;;9.04;89.00;101016.20;100340;1301;88946;-59
2022/11/06 09:52:33;;;;;;;14.30;11.30;;;;;;;9.05;89.18;101013.23;100357;1300;78835;-59
2022/11/06 09:55:15;;;;;;;13.60;11.00;;;;;;;9.14;89.26;101013.20;100336;1301;99873;-60
2022/11/06 09:57:52;;;;;;;13.60;11.70;;;;;;;9.19;89.08;101012.73;100350;1301;95709;-59
2022/11/06 10:00:22;;;;;;;15.60;11.70;;;;;;;9.27;88.25;101011.73;100307;1302;82444;-59
2022/11/06 10:03:00;;;;;;;15.30;11.80;;;;;;;9.25;88.02;101017.84;100330;1300;88172;-60
2022/11/06 10:05:33;;;;;;;16.90;13.10;;;;;;;9.24;88.06;101020.16;100298;1300;81643;-59
2022/11/06 10:08:06;;;;;;;16.10;11.70;;;;;;;9.18;88.21;101020.42;100309;1298;100122;-61
2022/11/06 10:10:50;;;;;;;15.30;12.40;;;;;;;9.11;88.52;101019.98;100236;1300;95217;-60
2022/11/06 10:13:45;;;;;;;18.00;12.70;;;;;;;9.03;88.69;101019.54;100310;1300;83131;-60
2022/11/06 10:16:30;;;;;;;16.30;11.80;;;;;;;9.08;89.10;101016.55;100268;1294;85575;-59
2022/11/06 10:19:11;;;;;;;17.00;11.70;;;;;;;9.25;89.03;101015.86;100289;1299;81657;-58
2022/11/06 10:21:56;;;;;;;15.70;11.80;;;;;;;9.37;88.63;101013.06;100268;1300;99298;-58
2022/11/06 10:24:37;;;;;;;16.70;12.30;;;;;;;9.33;88.49;101013.73;100276;1298;95066;-61
2022/11/06 10:27:16;;;;;;;14.90;12.50;;;;;;;9.38;88.36;101011.23;100243;1300;82913;-61
2022/11/06 10:30:08;;;;;;;18.90;14.40;;;;;;;9.45;88.18;101012.09;100321;1292;87344;-60
2022/11/06 10:33:12;;;;;;;18.80;15.00;;;;;;;9.47;87.92;101007.19;100303;1300;80749;-60
2022/11/06 10:35:51;;;;;;;18.90;14.20;;;;;;;9.43;88.01;101003.10;100286;1293;99953;-59
2022/11/06 10:38:28;;;;;;;19.80;14.80;;;;;;;9.40;87.85;101001.65;100327;1290;95276;-60
2022/11/06 10:41:07;;;;;;;19.80;13.50;;;;;;;9.33;88.07;101000.09;100334;1294;82040;-59
2022/11/06 10:43:49;;;;;;;17.70;14.10;;;;;;;9.38;87.98;100998.86;100266;1292;89249;-60
2022/11/06 10:46:29;;;;;;;17.20;13.40;;;;;;;9.42;88.28;100991.58;100283;1301;81866;-60
2022/11/06 10:49:01;;;;;;;15.90;13.00;;;;;;;9.60;88.25;100991.16;100315;1300;97856;-58
2022/11/06 10:51:47;;;;;;;14.10;11.60;;;;;;;9.70;87.82;100990.20;100221;1300;93679;-60
2022/11/06 10:54:35;;;;;;;12.30;10.60;;;;;;;9.71;87.84;100987.77;100255;1296;82595;-61
2022/11/06 10:57:35;;;;;;;16.30;11.70;;;;;;;9.73;87.82;100985.04;100244;1298;88829;-61
2022/11/06 11:00:14;;;;;;;17.00;12.10;;;;;;;9.81;87.84;100983.27;100293;1300;78355;-60
2022/11/06 11:02:51;;;;;;;15.20;11.60;;;;;;;9.91;87.62;100981.54;100238;1300;98394;-57
2022/11/06 11:05:27;;;;;;;14.20;11.20;;;;;;;10.00;87.23;100978.77;100221;1302;95006;-59
2022/11/06 11:07:59;;;;;;;15.60;11.70;;;;;;;9.95;86.92;100976.61;100288;1301;82947;-60
2022/11/06 11:10:39;;;;;;;17.20;12.70;;;;;;;9.87;86.78;100977.94;100296;1298;88958;-61
2022/11/06 11:13:21;;;;;;;17.90;13.60;;;;;;;9.71;87.04;100975.26;100284;1294;82733;-60
2022/11/06 11:15:56;;;;;;;15.20;12.10;;;;;;;9.69;87.28;100968.98;100333;1294;99403;-61
2022/11/06 11:18:31;;;;;;;20.90;14.00;;;;;;;9.73;87.11;100964.66;100306;1296;95562;-61
2022/11/06 11:21:22;;;;;;;18.50;12.20;;;;;;;9.86;87.29;100957.90;100354;1300;82941;-61
2022/11/06 11:24:13;;;;;;;17.10;13.70;;;;;;;10.00;87.23;100956.06;100247;1300;89230;-59
2022/11/06 11:26:55;;;;;;;16.90;13.70;;;;;;;10.06;86.89;100953.23;100282;1302;81181;-60
2022/11/06 11:29:31;;;;;;;17.00;13.20;;;;;;;10.05;87.03;100947.45;100284;1298;98542;-60
2022/11/06 11:32:06;;;;;;;18.10;13.30;;;;;;;10.06;87.27;100951.01;100282;1285;93239;-61
2022/11/06 11:34:46;;;;;;;19.70;14.20;;;;;;;10.13;87.30;100945.79;100171;1297;82424;-60
2022/11/06 11:37:27;;;;;;;17.20;13.80;;;;;;;10.34;87.36;100945.63;100279;1300;88835;-59
2022/11/06 11:40:34;;;;;;;17.90;12.90;;;;;;;10.50;86.60;100942.48;100264;1300;78481;-58
2022/11/06 11:43:24;;;;;;;15.70;12.80;;;;;;;10.42;85.51;100948.37;100276;1300;97280;-59
2022/11/06 11:46:17;;;;;;;15.50;12.30;;;;;;;10.11;85.53;100944.63;100254;1292;93249;-59
2022/11/06 11:48:50;;;;;;;18.80;12.90;;;;;;;9.83;85.90;100942.65;100323;1302;83317;-60
2022/11/06 11:51:42;;;;;;;19.70;14.20;;;;;;;9.73;86.13;100944.98;100323;1295;88418;-58
2022/11/06 11:54:30;;;;;;;17.30;13.80;;;;;;;9.68;86.30;100942.11;100275;1294;81233;-60
2022/11/06 11:57:07;;;;;;;18.50;15.00;;;;;;;9.65;86.48;100945.13;100293;1300;99737;-61
2022/11/06 11:59:53;;;;;;;19.10;14.90;;;;;;;9.59;86.60;100942.69;100304;1293;95033;-61
2022/11/06 12:02:36;;;;;;;21.50;16.60;;;;;;;9.72;86.95;100945.94;100294;1301;83303;-61